Time;durP1;ratioP1;P1;durP2;ratioP2;P2;SDS_P1;SDS_P2;PMS_P1;PMS_P2;Temp;Humidity;BMP_temperature;BMP_pressure;BME280_temperature;BME280_humidity;BME280_pressure;Samples;Min_cycle;Max_cycle;Signal;HPM_P1;HPM_P2
2021/12/07 00:00:39;;;;;;;102.65;40.95;;;;;;;7.91;83.53;98340.50;3084503;28;20054;-68
2021/12/07 00:02:12;;;;;;;112.45;42.60;;;;;;;7.97;83.50;98353.13;3084168;28;20046;-69
2021/12/07 00:03:45;;;;;;;112.78;41.60;;;;;;;8.02;83.53;98357.22;3084452;28;20524;-69
2021/12/07 00:05:17;;;;;;;;;;;;;;;7.81;83.68;98362.72;3079992;28;20078;-69
2021/12/07 00:06:49;;;;;;;108.78;39.33;;;;;;;7.66;83.54;98337.63;3084503;28;19922;-69
2021/12/07 00:08:21;;;;;;;107.90;41.30;;;;;;;7.95;83.71;98362.72;3085366;28;20051;-70
2021/12/07 00:09:53;;;;;;;105.63;42.25;;;;;;;7.95;83.72;98351.53;3082978;28;20050;-70
2021/12/07 00:11:28;;;;;;;101.00;39.55;;;;;;;7.93;84.18;98353.41;3088052;28;20527;-71
2021/12/07 00:12:59;;;;;;;117.57;42.20;;;;;;;7.91;83.79;98357.81;3088209;28;20504;-70
2021/12/07 00:14:37;;;;;;;110.13;43.28;;;;;;;8.00;83.46;98385.81;3082263;28;20516;-70
2021/12/07 00:16:11;;;;;;;111.93;42.55;;;;;;;8.01;83.68;98373.69;3083790;28;20086;-71
2021/12/07 00:17:43;;;;;;;108.65;40.40;;;;;;;7.96;83.83;98348.88;3083664;28;20047;-70
2021/12/07 00:19:17;;;;;;;116.65;41.17;;;;;;;7.91;84.22;98348.28;3084366;28;20130;-70
2021/12/07 00:20:48;;;;;;;;;;;;;;;7.74;84.38;98356.19;3079685;28;20051;-70
2021/12/07 00:22:21;;;;;;;104.90;39.15;;;;;;;7.83;84.45;98347.06;3083592;28;20522;-70
2021/12/07 00:23:53;;;;;;;110.22;42.58;;;;;;;7.80;85.00;98336.88;3083652;28;20047;-71
2021/12/07 00:25:25;;;;;;;117.57;42.75;;;;;;;7.81;84.75;98349.75;3082275;28;20051;-70
2021/12/07 00:26:57;;;;;;;113.82;42.45;;;;;;;7.85;84.23;98353.81;3084546;28;20446;-71
2021/12/07 00:28:29;;;;;;;109.70;43.92;;;;;;;7.90;84.01;98366.53;3082765;28;20039;-71
2021/12/07 00:30:02;;;;;;;109.43;41.85;;;;;;;7.92;84.10;98355.13;3084064;28;20051;-71
2021/12/07 00:31:39;;;;;;;113.22;43.33;;;;;;;7.64;84.12;98293.69;3083165;28;20050;-71
2021/12/07 00:33:17;;;;;;;109.03;42.72;;;;;;;7.91;84.23;98337.91;3083030;28;20043;-70
2021/12/07 00:36:45;;;;;;;110.75;41.53;;;;;;;7.92;84.13;98320.59;3074672;28;20146;-70
2021/12/07 00:38:21;;;;;;;103.97;39.17;;;;;;;7.54;83.84;98264.03;3080229;28;20054;-70
2021/12/07 00:39:53;;;;;;;105.63;40.45;;;;;;;7.92;83.67;98321.44;3081632;28;20058;-70
2021/12/07 00:41:25;;;;;;;109.25;40.63;;;;;;;7.94;83.64;98331.72;3083276;28;20050;-70
2021/12/07 00:42:57;;;;;;;110.88;40.17;;;;;;;7.95;83.76;98329.03;3084482;28;20106;-71
2021/12/07 00:44:30;;;;;;;111.88;41.22;;;;;;;7.96;83.78;98325.53;3082742;28;20047;-69
2021/12/07 00:46:03;;;;;;;105.07;41.43;;;;;;;7.89;83.63;98318.19;3082596;28;20055;-70
2021/12/07 00:47:35;;;;;;;107.65;41.85;;;;;;;7.72;83.65;98298.44;3082002;28;20776;-72
2021/12/07 00:49:07;;;;;;;112.38;41.58;;;;;;;7.88;83.44;98325.13;3083850;28;20049;-71
2021/12/07 00:50:43;;;;;;;109.72;41.10;;;;;;;7.93;83.30;98322.28;3085213;28;20046;-70
2021/12/07 00:52:15;;;;;;;104.78;41.13;;;;;;;7.90;83.52;98304.31;3082513;28;20504;-69
2021/12/07 00:53:47;;;;;;;98.38;39.88;;;;;;;7.83;83.46;98292.63;3083592;28;20055;-70
2021/12/07 00:55:23;;;;;;;107.28;40.50;;;;;;;7.91;83.42;98308.56;3083895;28;20050;-70
2021/12/07 00:56:55;;;;;;;110.10;40.35;;;;;;;7.86;83.63;98303.66;3085376;28;20127;-70
2021/12/07 00:58:28;;;;;;;104.32;39.42;;;;;;;7.95;83.43;98303.09;3078418;28;20442;-70
2021/12/07 01:00:00;;;;;;;110.78;42.13;;;;;;;7.92;83.18;98299.88;3083203;28;20046;-70
2021/12/07 01:01:32;;;;;;;105.72;40.78;;;;;;;7.83;83.67;98288.28;3083102;28;20790;-69
2021/12/07 01:03:04;;;;;;;102.25;40.85;;;;;;;7.74;83.93;98275.84;3074035;28;20519;-69
2021/12/07 01:04:36;;;;;;;114.32;43.10;;;;;;;7.77;83.86;98277.44;3074947;28;20055;-68
2021/12/07 01:06:19;;;;;;;103.43;40.75;;;;;;;7.74;83.58;98273.25;3074541;28;21864;-69
2021/12/07 01:09:44;;;;;;;101.00;41.15;;;;;;;7.83;83.55;98282.25;3068048;28;20058;-71
2021/12/07 01:26:00;;;;;;;91.28;37.55;;;;;;;7.87;83.61;98271.66;3072483;28;20050;-70
2021/12/07 01:27:32;;;;;;;98.15;38.25;;;;;;;7.92;83.57;98272.19;3077927;28;20180;-71
2021/12/07 01:29:05;;;;;;;101.90;38.83;;;;;;;7.95;83.68;98266.00;3071763;28;20150;-71
2021/12/07 01:30:43;;;;;;;98.35;39.30;;;;;;;7.98;83.42;98268.41;3074308;28;20058;-71
2021/12/07 01:32:35;;;;;;;100.90;39.90;;;;;;;7.97;83.68;98272.75;3082513;28;20184;-71
2021/12/07 01:34:22;;;;;;;104.63;39.45;;;;;;;7.97;83.63;98271.94;3081997;28;20054;-70
2021/12/07 01:36:08;;;;;;;101.47;38.92;;;;;;;7.96;83.66;98263.31;3084073;28;20047;-71
2021/12/07 01:37:59;;;;;;;103.85;38.42;;;;;;;7.94;83.64;98265.16;3082613;28;20047;-72
2021/12/07 01:40:00;;;;;;;100.10;38.15;;;;;;;8.01;83.82;98285.53;3083932;28;20090;-70
2021/12/07 01:42:47;;;;;;;102.97;37.92;;;;;;;7.91;83.63;98262.75;3081935;28;20058;-70
2021/12/07 01:46:01;;;;;;;100.15;38.53;;;;;;;7.92;84.13;98264.41;3023741;29;20057;-71
2021/12/07 01:47:47;;;;;;;109.20;38.70;;;;;;;7.96;83.97;98265.91;3030454;29;20048;-69
2021/12/07 01:51:32;;;;;;;104.43;37.75;;;;;;;8.03;84.25;98253.41;3046782;28;20070;-71
2021/12/07 02:00:22;;;;;;;107.05;40.33;;;;;;;8.10;84.17;98244.34;3081043;28;20051;-71
2021/12/07 02:01:54;;;;;;;100.30;40.20;;;;;;;8.05;84.32;98237.78;3082987;28;20051;-71
2021/12/07 02:03:27;;;;;;;104.97;41.90;;;;;;;8.07;84.36;98247.13;3082942;28;20055;-71
2021/12/07 02:04:59;;;;;;;103.15;40.80;;;;;;;8.12;84.04;98252.03;3083496;28;20073;-71
2021/12/07 02:06:31;;;;;;;108.22;40.97;;;;;;;8.14;83.99;98242.41;3083307;28;20058;-70
2021/12/07 02:08:04;;;;;;;104.13;40.17;;;;;;;8.14;83.58;98221.66;3081847;28;20054;-71
2021/12/07 02:09:40;;;;;;;98.75;39.00;;;;;;;8.17;83.62;98217.13;3082552;28;20118;-70
2021/12/07 02:11:13;;;;;;;100.13;39.40;;;;;;;8.18;83.72;98212.78;3081345;28;20095;-71
2021/12/07 02:12:47;;;;;;;102.88;38.03;;;;;;;8.20;83.75;98216.94;3077259;28;20107;-71
2021/12/07 02:14:18;;;;;;;101.32;39.80;;;;;;;8.21;83.51;98222.94;3072383;28;20070;-71
2021/12/07 02:15:50;;;;;;;103.85;39.20;;;;;;;8.24;83.20;98230.56;3074192;28;20061;-71
2021/12/07 02:17:25;;;;;;;97.90;38.38;;;;;;;8.27;83.63;98229.53;3074536;28;20669;-72
2021/12/07 02:18:57;;;;;;;102.82;40.35;;;;;;;8.27;83.47;98221.75;3070461;28;20050;-71
2021/12/07 02:20:31;;;;;;;101.55;39.28;;;;;;;8.29;83.20;98218.16;3073573;28;20136;-71
2021/12/07 02:22:06;;;;;;;96.82;38.67;;;;;;;8.30;83.26;98206.84;3071603;28;20046;-71
2021/12/07 02:23:38;;;;;;;102.35;39.97;;;;;;;8.30;83.33;98214.63;3068255;28;20690;-71
2021/12/07 02:25:13;;;;;;;99.53;39.08;;;;;;;8.29;83.42;98207.78;3072652;28;20161;-71
2021/12/07 02:26:47;;;;;;;95.53;38.70;;;;;;;8.31;83.21;98213.72;3071264;28;20052;-71
2021/12/07 02:28:21;;;;;;;105.35;40.70;;;;;;;8.33;83.49;98219.63;3079270;28;20058;-71
2021/12/07 02:29:53;;;;;;;105.32;39.13;;;;;;;8.31;83.20;98195.56;3070093;28;20091;-70
2021/12/07 02:31:25;;;;;;;103.78;40.25;;;;;;;8.35;83.46;98181.44;3073800;28;20062;-70
2021/12/07 02:32:57;;;;;;;108.55;38.60;;;;;;;8.21;83.59;98174.50;3074190;28;20058;-70
2021/12/07 02:34:29;;;;;;;106.13;38.67;;;;;;;8.33;83.28;98195.44;3072533;28;20070;-70
2021/12/07 02:36:02;;;;;;;103.00;40.88;;;;;;;8.29;83.36;98194.81;3075251;28;20153;-70
2021/12/07 02:37:36;;;;;;;99.05;40.05;;;;;;;8.37;83.39;98205.53;3072442;28;20062;-70
2021/12/07 02:39:10;;;;;;;100.82;39.03;;;;;;;8.35;83.38;98199.59;3068220;28;20531;-70
2021/12/07 02:40:42;;;;;;;97.03;38.67;;;;;;;8.37;83.50;98202.94;3072688;28;20429;-70
2021/12/07 02:42:14;;;;;;;97.88;38.92;;;;;;;8.38;83.22;98202.03;3067633;28;20078;-68
2021/12/07 02:43:47;;;;;;;95.40;37.33;;;;;;;8.40;83.02;98210.56;3076139;28;20062;-69
2021/12/07 02:45:21;;;;;;;92.00;38.28;;;;;;;8.41;83.36;98221.78;3072362;28;20396;-69
2021/12/07 02:46:53;;;;;;;94.00;38.35;;;;;;;8.42;83.14;98215.66;3073790;28;20600;-71
2021/12/07 02:48:25;;;;;;;92.32;37.40;;;;;;;8.42;83.39;98213.06;3072390;28;20440;-69
2021/12/07 02:49:57;;;;;;;97.47;36.95;;;;;;;8.42;83.19;98220.84;3069030;28;20058;-69
2021/12/07 02:51:30;;;;;;;107.85;38.67;;;;;;;8.44;83.20;98216.41;3071582;28;20161;-71
2021/12/07 02:53:04;;;;;;;90.32;36.13;;;;;;;8.48;82.91;98211.84;3072723;28;20070;-69
2021/12/07 02:54:42;;;;;;;92.53;37.35;;;;;;;8.39;82.91;98202.88;3072646;28;20066;-69
2021/12/07 02:56:14;;;;;;;91.03;36.83;;;;;;;8.42;82.81;98203.50;3070933;28;20401;-69
2021/12/07 02:57:47;;;;;;;98.05;36.05;;;;;;;8.46;82.99;98204.19;3077300;28;20054;-70
2021/12/07 02:59:21;;;;;;;91.85;34.65;;;;;;;8.45;83.04;98199.06;3073538;28;20051;-70
2021/12/07 03:01:00;;;;;;;;;;;;;;;8.23;83.25;98197.78;3071674;28;20323;-72
2021/12/07 03:02:37;;;;;;;86.38;31.17;;;;;;;8.21;83.41;98184.06;3073312;28;19933;-70
2021/12/07 03:04:14;;;;;;;72.18;30.23;;;;;;;8.32;83.54;98184.25;3070616;28;20395;-71
2021/12/07 03:05:53;;;;;;;84.70;33.70;;;;;;;8.37;83.34;98181.34;3070990;28;20368;-71
2021/12/07 03:07:40;;;;;;;81.78;32.40;;;;;;;8.38;83.32;98186.47;3074065;28;20527;-71
2021/12/07 03:26:00;;;;;;;74.35;30.38;;;;;;;8.35;82.70;98199.59;3070328;28;20046;-71
2021/12/07 03:27:32;;;;;;;77.28;31.45;;;;;;;8.34;82.99;98200.53;3072010;28;20689;-71
2021/12/07 03:29:04;;;;;;;79.75;31.48;;;;;;;8.38;82.66;98212.41;3073575;28;20534;-72
2021/12/07 03:30:37;;;;;;;78.97;32.47;;;;;;;8.41;82.83;98212.22;3071800;28;20059;-71
2021/12/07 03:32:09;;;;;;;82.00;33.53;;;;;;;8.37;82.26;98194.31;3072960;28;20137;-72
2021/12/07 03:34:05;;;;;;;81.43;33.10;;;;;;;8.43;82.64;98196.59;3071542;28;20492;-71
2021/12/07 03:35:38;;;;;;;76.07;31.50;;;;;;;8.37;82.67;98208.13;3083032;28;20071;-71
2021/12/07 03:37:10;;;;;;;81.07;31.73;;;;;;;8.38;82.52;98215.00;3081589;28;20050;-70
2021/12/07 03:38:42;;;;;;;81.45;32.00;;;;;;;8.44;82.42;98221.59;3082589;28;20392;-70
2021/12/07 03:40:15;;;;;;;89.00;33.83;;;;;;;8.45;82.39;98206.84;3081938;28;20563;-71
2021/12/07 03:41:48;;;;;;;83.72;33.42;;;;;;;8.45;82.31;98196.47;3086216;28;20059;-72
2021/12/07 03:43:20;;;;;;;86.80;34.40;;;;;;;8.45;82.42;98183.50;3084619;28;20047;-72
2021/12/07 03:44:52;;;;;;;94.18;36.10;;;;;;;8.45;82.17;98197.31;3079531;28;20059;-72
2021/12/07 03:46:24;;;;;;;84.38;34.50;;;;;;;8.46;81.91;98186.03;3082542;28;20051;-73
2021/12/07 03:47:56;;;;;;;81.65;32.42;;;;;;;8.18;82.26;98137.56;3081840;28;20110;-74
2021/12/07 03:49:28;;;;;;;88.50;34.05;;;;;;;8.46;82.30;98186.03;3081237;28;20051;-74
2021/12/07 03:51:00;;;;;;;81.10;32.85;;;;;;;8.48;82.18;98184.13;3081530;28;20051;-73
2021/12/07 03:52:31;;;;;;;86.93;34.95;;;;;;;8.48;82.07;98194.50;3081960;28;20055;-73
2021/12/07 03:54:03;;;;;;;82.47;34.00;;;;;;;8.48;82.08;98196.28;3082590;28;20055;-71
2021/12/07 03:55:36;;;;;;;87.28;33.60;;;;;;;8.47;82.10;98194.63;3081457;28;20084;-72
2021/12/07 03:57:09;;;;;;;88.93;34.25;;;;;;;8.48;81.74;98196.28;3082086;28;20058;-72
2021/12/07 03:58:41;;;;;;;88.35;33.70;;;;;;;8.25;81.75;98175.16;3082253;28;20062;-72
2021/12/07 04:00:18;;;;;;;86.60;33.10;;;;;;;8.45;81.57;98199.91;3080014;28;20051;-71
2021/12/07 04:01:52;;;;;;;84.70;34.10;;;;;;;8.44;81.97;98203.44;3081671;28;20050;-70
2021/12/07 04:03:23;;;;;;;85.63;33.13;;;;;;;8.45;81.79;98212.03;3077009;28;20694;-70
2021/12/07 04:05:01;;;;;;;87.68;33.85;;;;;;;8.43;82.22;98204.38;3077601;28;20051;-70
2021/12/07 04:06:33;;;;;;;77.78;32.70;;;;;;;8.45;82.03;98207.69;3078786;28;20059;-69
2021/12/07 04:08:06;;;;;;;82.90;33.10;;;;;;;8.45;81.89;98207.69;3079269;28;20142;-69
2021/12/07 04:09:38;;;;;;;83.70;33.47;;;;;;;8.44;81.88;98206.03;3080266;28;20066;-69
2021/12/07 04:11:10;;;;;;;78.78;32.10;;;;;;;8.46;82.14;98211.09;3076510;28;20575;-69
2021/12/07 04:12:44;;;;;;;88.45;35.08;;;;;;;8.46;82.11;98211.97;3081911;28;20093;-69
2021/12/07 04:14:16;;;;;;;77.97;32.33;;;;;;;8.48;81.99;98230.00;3078195;28;20055;-68
2021/12/07 04:15:48;;;;;;;86.68;33.63;;;;;;;8.47;81.92;98236.97;3077218;28;20526;-69
2021/12/07 04:17:20;;;;;;;83.85;33.20;;;;;;;8.48;81.91;98241.22;3072857;28;20515;-70
2021/12/07 04:18:52;;;;;;;87.93;35.05;;;;;;;8.40;82.03;98223.53;3078593;28;20384;-70
2021/12/07 04:20:24;;;;;;;85.20;34.30;;;;;;;8.48;82.32;98243.81;3066786;28;20059;-71
2021/12/07 04:21:56;;;;;;;91.50;36.13;;;;;;;8.48;82.26;98250.75;3079284;28;20090;-71
2021/12/07 04:23:29;;;;;;;106.80;37.00;;;;;;;8.50;82.37;98254.09;3078252;28;20059;-71
2021/12/07 04:25:00;;;;;;;96.70;37.20;;;;;;;8.49;82.11;98240.31;3078988;28;20047;-71
2021/12/07 04:26:32;;;;;;;91.25;35.90;;;;;;;8.49;82.62;98236.84;3078748;28;20341;-73
2021/12/07 04:28:06;;;;;;;90.15;35.70;;;;;;;8.49;82.83;98222.16;3079097;28;20047;-73
2021/12/07 04:29:38;;;;;;;83.43;33.95;;;;;;;8.37;83.41;98199.50;3076266;28;20051;-73
2021/12/07 04:31:11;;;;;;;93.70;36.22;;;;;;;8.35;83.56;98181.44;3078818;28;20158;-73
2021/12/07 04:32:43;;;;;;;94.10;35.40;;;;;;;8.22;84.40;98175.34;3078403;28;20054;-73
2021/12/07 04:34:15;;;;;;;96.05;37.83;;;;;;;8.23;83.99;98163.22;3076948;28;20058;-71
2021/12/07 04:35:49;;;;;;;94.97;37.45;;;;;;;8.23;84.48;98171.84;3079749;28;20062;-71
2021/12/07 04:37:21;;;;;;;96.53;36.53;;;;;;;8.12;84.86;98156.94;3076386;28;20504;-70
2021/12/07 04:38:53;;;;;;;101.93;36.80;;;;;;;8.03;85.81;98141.94;3078653;28;20580;-70
2021/12/07 04:40:27;;;;;;;106.35;36.10;;;;;;;8.07;85.56;98147.75;3076965;28;20068;-70
2021/12/07 04:41:59;;;;;;;104.35;36.58;;;;;;;8.05;85.42;98162.59;3077506;28;20659;-72
2021/12/07 04:43:33;;;;;;;98.18;36.08;;;;;;;8.18;85.11;98199.81;3075577;28;20169;-72
2021/12/07 04:45:09;;;;;;;104.43;38.53;;;;;;;8.18;84.85;98199.81;3072679;28;20051;-72
2021/12/07 04:46:48;;;;;;;98.45;38.00;;;;;;;8.22;85.04;98209.06;3074518;28;20094;-71
2021/12/07 04:48:45;;;;;;;104.40;37.67;;;;;;;8.25;85.07;98216.66;3075183;28;20058;-71
2021/12/07 04:57:34;;;;;;;98.47;35.70;;;;;;;8.23;85.24;98212.50;3074761;28;20179;-71
2021/12/07 04:57:56;;;;;;;97.22;37.08;;;;;;;8.29;85.67;98233.69;3072906;28;20446;-70
2021/12/07 04:59:29;;;;;;;107.07;37.25;;;;;;;8.02;85.32;98186.94;3074120;28;20114;-70
2021/12/07 05:01:09;;;;;;;103.70;39.05;;;;;;;8.37;85.20;98236.66;3078825;28;20133;-70
2021/12/07 05:02:44;;;;;;;111.90;40.85;;;;;;;8.39;85.31;98240.00;3079692;28;20090;-70
2021/12/07 05:04:20;;;;;;;132.05;49.25;;;;;;;8.41;85.21;98239.94;3076301;28;20093;-70
2021/12/07 05:05:53;;;;;;;126.03;44.72;;;;;;;8.42;85.63;98242.41;3078889;28;20400;-69
2021/12/07 05:07:31;;;;;;;107.80;41.95;;;;;;;8.42;85.53;98244.19;3077807;28;20640;-70
2021/12/07 05:09:19;;;;;;;112.70;39.95;;;;;;;8.41;85.38;98238.16;3078901;28;20562;-70
2021/12/07 05:11:22;;;;;;;107.85;40.88;;;;;;;8.41;85.55;98237.34;3076814;28;20090;-69
2021/12/07 05:13:20;;;;;;;100.65;37.50;;;;;;;8.38;85.60;98235.75;3080487;28;20077;-70
2021/12/07 05:14:59;;;;;;;98.88;37.45;;;;;;;8.40;85.42;98220.94;3077482;28;20130;-70
2021/12/07 05:16:47;;;;;;;99.00;39.67;;;;;;;8.41;85.42;98194.06;3074542;28;20599;-70
2021/12/07 05:18:38;;;;;;;93.78;38.55;;;;;;;8.45;85.29;98183.50;3077099;28;20057;-70
2021/12/07 05:23:59;;;;;;;95.05;39.00;;;;;;;8.20;85.69;98152.13;3077383;28;20095;-69
2021/12/07 05:37:42;;;;;;;104.60;40.28;;;;;;;8.40;85.74;98161.28;3080943;28;20055;-72
2021/12/07 05:38:33;;;;;;;101.40;42.28;;;;;;;8.41;85.58;98175.91;3081664;28;20043;-72
2021/12/07 05:40:08;;;;;;;108.85;42.70;;;;;;;8.47;85.76;98182.47;3082036;28;20630;-72
2021/12/07 05:41:40;;;;;;;109.05;43.72;;;;;;;8.51;85.80;98175.34;3079188;28;20062;-69
2021/12/07 05:43:12;;;;;;;112.55;42.60;;;;;;;8.53;85.95;98171.72;3080331;28;20378;-69
2021/12/07 05:44:44;;;;;;;110.90;42.38;;;;;;;8.56;85.66;98170.69;3075200;28;20059;-69
2021/12/07 05:46:18;;;;;;;112.68;43.50;;;;;;;8.60;85.81;98173.00;3078171;28;20150;-70
2021/12/07 05:47:50;;;;;;;;;;;;;;;8.38;85.70;98173.50;3078520;28;20142;-71
2021/12/07 05:49:22;;;;;;;109.82;40.58;;;;;;;8.48;86.35;98175.53;3077337;28;20017;-72
2021/12/07 05:50:54;;;;;;;110.60;42.38;;;;;;;8.55;86.03;98172.47;3078775;28;20055;-71
2021/12/07 05:52:25;;;;;;;104.10;41.85;;;;;;;8.61;85.99;98181.63;3077282;28;20054;-70
2021/12/07 05:53:56;;;;;;;112.60;43.35;;;;;;;8.64;86.11;98173.66;3076943;28;20061;-71
2021/12/07 05:55:29;;;;;;;107.13;42.83;;;;;;;8.68;85.83;98171.69;3076514;28;20419;-71
2021/12/07 05:57:01;;;;;;;102.18;42.22;;;;;;;8.72;85.98;98173.16;3073986;28;20641;-71
2021/12/07 05:58:32;;;;;;;109.20;42.10;;;;;;;8.74;85.95;98185.09;3077888;28;20054;-70
2021/12/07 06:00:08;;;;;;;110.20;42.20;;;;;;;8.76;85.82;98180.66;3075668;28;20053;-69
2021/12/07 06:01:42;;;;;;;106.55;42.75;;;;;;;8.79;85.79;98190.84;3077624;28;20059;-71
2021/12/07 06:03:15;;;;;;;121.13;44.28;;;;;;;8.82;85.88;98195.84;3076827;28;20062;-69
2021/12/07 06:04:47;;;;;;;116.07;44.63;;;;;;;8.83;85.72;98196.66;3075728;28;20047;-70
2021/12/07 06:06:19;;;;;;;110.85;43.83;;;;;;;8.83;85.82;98197.50;3076843;28;20558;-66
2021/12/07 06:07:51;;;;;;;119.35;46.53;;;;;;;8.85;85.61;98208.63;3075091;28;20058;-69
2021/12/07 06:09:23;;;;;;;121.60;46.53;;;;;;;8.82;85.62;98193.25;3076778;28;20443;-66
2021/12/07 06:10:55;;;;;;;117.47;50.63;;;;;;;8.85;85.54;98180.06;3075211;28;20054;-69
2021/12/07 06:12:27;;;;;;;134.63;51.88;;;;;;;8.91;85.58;98184.03;3075905;28;20058;-68
2021/12/07 06:13:59;;;;;;;122.85;49.53;;;;;;;8.89;85.43;98162.53;3077032;28;20468;-68
2021/12/07 06:15:34;;;;;;;114.43;48.22;;;;;;;9.00;85.77;98173.06;3074595;28;20047;-71
2021/12/07 06:17:07;;;;;;;120.40;48.40;;;;;;;9.03;85.33;98166.84;3076685;28;20452;-68
2021/12/07 06:18:39;;;;;;;;;;;;;;;8.81;85.53;98169.97;3076271;28;20137;-68
2021/12/07 06:20:12;;;;;;;112.28;45.40;;;;;;;8.88;85.96;98169.47;3076501;28;20328;-68
2021/12/07 06:21:44;;;;;;;108.03;44.63;;;;;;;9.00;85.94;98170.47;3076307;28;20066;-68
2021/12/07 06:23:18;;;;;;;109.70;42.80;;;;;;;9.07;85.80;98181.28;3075291;28;20055;-68
2021/12/07 06:24:50;;;;;;;96.30;40.85;;;;;;;9.11;85.68;98164.59;3076068;28;20544;-68
2021/12/07 06:26:22;;;;;;;105.30;45.85;;;;;;;9.15;85.91;98157.41;3075246;28;20411;-69
2021/12/07 06:27:54;;;;;;;105.88;42.80;;;;;;;8.83;85.85;98101.44;3077302;28;20118;-69
2021/12/07 06:29:26;;;;;;;96.82;41.47;;;;;;;9.24;85.66;98162.00;3075147;28;20050;-68
2021/12/07 06:30:58;;;;;;;140.07;58.00;;;;;;;9.29;85.78;98162.53;3076007;28;20042;-66
2021/12/07 06:32:31;;;;;;;107.40;45.75;;;;;;;9.34;85.58;98168.25;3077302;28;20556;-66
2021/12/07 06:34:03;;;;;;;;;;;;;;;9.16;85.74;98172.88;3075317;28;20391;-66
2021/12/07 06:35:35;;;;;;;90.07;36.97;;;;;;;9.28;86.24;98166.88;3076267;28;19926;-66
2021/12/07 06:37:07;;;;;;;110.10;41.42;;;;;;;9.39;86.26;98160.16;3076441;28;20058;-66
2021/12/07 06:38:39;;;;;;;98.68;40.00;;;;;;;9.46;85.63;98166.59;3075908;28;20392;-66
2021/12/07 06:40:12;;;;;;;96.30;41.65;;;;;;;9.48;85.86;98156.94;3075577;28;20098;-66
2021/12/07 06:41:44;;;;;;;91.18;38.40;;;;;;;9.59;85.74;98167.47;3066705;28;20149;-68
2021/12/07 06:43:16;;;;;;;89.43;38.45;;;;;;;9.63;85.47;98166.31;3076617;28;20055;-67
2021/12/07 06:44:48;;;;;;;79.28;36.88;;;;;;;9.70;85.49;98175.38;3078941;28;20055;-67
2021/12/07 06:46:20;;;;;;;80.43;37.88;;;;;;;9.75;85.37;98175.03;3076319;28;20066;-67
2021/12/07 06:47:54;;;;;;;72.85;33.75;;;;;;;9.79;85.65;98160.91;3076009;28;20081;-67
2021/12/07 06:49:26;;;;;;;73.57;29.73;;;;;;;9.85;85.67;98165.69;3075036;28;20051;-67
2021/12/07 06:50:59;;;;;;;65.68;28.33;;;;;;;9.93;85.21;98159.94;3076550;28;20117;-68
2021/12/07 06:52:30;;;;;;;61.67;26.77;;;;;;;10.00;85.14;98161.22;3076271;28;20059;-69
2021/12/07 06:54:02;;;;;;;55.83;22.23;;;;;;;10.07;84.99;98153.81;3076005;28;20150;-68
2021/12/07 06:55:34;;;;;;;48.25;20.33;;;;;;;10.10;85.15;98157.03;3078409;28;20089;-68
2021/12/07 06:57:07;;;;;;;44.00;19.00;;;;;;;10.14;84.92;98153.25;3074463;28;20061;-66
2021/12/07 06:58:39;;;;;;;40.38;17.70;;;;;;;10.02;84.92;98125.50;3076462;28;20062;-66
2021/12/07 07:00:13;;;;;;;39.20;17.10;;;;;;;10.29;84.34;98153.16;3076165;28;20054;-66
2021/12/07 07:01:45;;;;;;;35.78;16.17;;;;;;;10.23;84.48;98138.78;3076918;28;20069;-66
2021/12/07 07:03:19;;;;;;;39.72;17.10;;;;;;;10.32;83.91;98155.53;3076130;28;20050;-67
2021/12/07 07:04:51;;;;;;;40.65;16.50;;;;;;;10.32;84.11;98148.56;3075046;28;20055;-66
2021/12/07 07:06:23;;;;;;;32.95;15.63;;;;;;;10.36;84.07;98141.41;3069496;28;20515;-66
2021/12/07 07:07:55;;;;;;;31.05;14.93;;;;;;;10.38;83.64;98131.69;3075427;28;20046;-66
2021/12/07 07:09:27;;;;;;;29.83;13.88;;;;;;;10.36;83.45;98131.81;3076785;28;20122;-66
2021/12/07 07:10:59;;;;;;;37.83;16.98;;;;;;;10.07;83.56;98089.63;3076052;28;20349;-68
2021/12/07 07:12:31;;;;;;;34.83;16.90;;;;;;;10.44;83.32;98133.84;3077107;28;20452;-69
2021/12/07 07:14:04;;;;;;;30.10;15.35;;;;;;;10.46;83.46;98129.38;3076654;28;20055;-66
2021/12/07 07:15:37;;;;;;;34.03;16.77;;;;;;;10.40;83.09;98124.63;3073176;28;20047;-68
2021/12/07 07:17:09;;;;;;;30.55;15.70;;;;;;;10.44;83.07;98139.06;3076944;28;20216;-67
2021/12/07 07:18:43;;;;;;;30.25;15.55;;;;;;;10.32;83.17;98113.91;3075416;28;20059;-66
2021/12/07 07:20:17;;;;;;;33.08;15.73;;;;;;;10.51;83.32;98139.47;3068152;28;20141;-66
2021/12/07 07:21:49;;;;;;;42.63;16.15;;;;;;;10.46;83.00;98130.22;3076174;28;20079;-66
2021/12/07 07:23:21;;;;;;;35.22;16.88;;;;;;;10.59;82.96;98139.75;3068083;28;20131;-66
2021/12/07 07:24:53;;;;;;;30.90;15.68;;;;;;;10.63;82.99;98144.63;3068744;28;20079;-66
2021/12/07 07:26:25;;;;;;;35.38;14.23;;;;;;;10.68;82.83;98142.53;3075264;28;20054;-66
2021/12/07 07:27:57;;;;;;;31.60;14.70;;;;;;;10.76;82.91;98135.94;3076763;28;20054;-66
2021/12/07 07:29:29;;;;;;;35.05;15.48;;;;;;;10.81;82.59;98133.84;3077731;28;20133;-66
2021/12/07 07:31:03;;;;;;;24.90;12.90;;;;;;;10.86;82.15;98123.91;3074337;28;20058;-66
2021/12/07 07:32:35;;;;;;;25.23;12.52;;;;;;;10.94;82.05;98134.59;3076132;28;20065;-66
2021/12/07 07:34:08;;;;;;;27.42;13.13;;;;;;;11.01;82.23;98135.81;3077034;28;20400;-67
2021/12/07 07:35:40;;;;;;;24.17;11.82;;;;;;;11.01;81.75;98142.81;3076696;28;20504;-67
2021/12/07 07:37:12;;;;;;;27.65;12.02;;;;;;;11.02;82.06;98137.47;3077744;28;20051;-67
2021/12/07 07:38:44;;;;;;;17.63;10.23;;;;;;;10.99;81.68;98140.31;3071682;28;20051;-66
2021/12/07 07:40:19;;;;;;;22.08;9.07;;;;;;;11.03;81.41;98146.97;3072140;28;20050;-67
2021/12/07 07:41:51;;;;;;;16.58;8.35;;;;;;;11.00;81.52;98149.75;3070839;28;20057;-68
2021/12/07 07:43:24;;;;;;;17.25;7.40;;;;;;;10.98;81.22;98145.63;3074632;28;20054;-68
2021/12/07 07:44:56;;;;;;;16.92;8.40;;;;;;;10.96;81.29;98147.50;3074167;28;20437;-66
2021/12/07 07:46:28;;;;;;;13.75;7.43;;;;;;;10.92;81.50;98146.91;3066350;28;20153;-66
2021/12/07 07:48:00;;;;;;;16.73;7.68;;;;;;;10.94;81.51;98155.41;3074536;28;20130;-65
2021/12/07 07:49:33;;;;;;;15.40;8.60;;;;;;;10.94;81.33;98155.41;3072745;28;20497;-66
2021/12/07 07:51:05;;;;;;;14.65;8.07;;;;;;;10.88;80.88;98153.25;3068830;28;20073;-66
2021/12/07 07:52:37;;;;;;;15.25;6.70;;;;;;;10.87;81.00;98162.03;3072579;28;20057;-69
2021/12/07 07:54:10;;;;;;;14.27;6.45;;;;;;;10.84;80.72;98170.06;3074228;28;20222;-66
2021/12/07 07:55:42;;;;;;;12.30;6.18;;;;;;;10.81;80.85;98171.13;3075193;28;20515;-65
2021/12/07 07:57:14;;;;;;;14.45;6.97;;;;;;;10.80;80.60;98182.47;3072012;28;20061;-66
2021/12/07 07:58:47;;;;;;;12.85;6.35;;;;;;;10.79;80.67;98178.19;3075846;28;20318;-67
2021/12/07 08:00:21;;;;;;;12.77;6.38;;;;;;;10.81;80.72;98175.50;3074510;28;20114;-66
2021/12/07 08:01:53;;;;;;;12.95;5.78;;;;;;;10.79;80.76;98172.16;3074069;28;20567;-67
2021/12/07 08:03:25;;;;;;;13.45;5.90;;;;;;;10.69;80.14;98156.38;3073725;28;20145;-67
2021/12/07 08:04:58;;;;;;;14.02;5.78;;;;;;;10.73;80.34;98168.22;3073453;28;20102;-67
2021/12/07 08:06:31;;;;;;;9.60;5.00;;;;;;;10.73;79.94;98170.81;3079783;28;20511;-66
2021/12/07 08:08:03;;;;;;;10.00;4.80;;;;;;;10.69;79.86;98169.41;3076326;28;20063;-68
2021/12/07 08:09:35;;;;;;;12.23;5.35;;;;;;;10.73;79.75;98172.59;3077997;28;20054;-67
2021/12/07 08:11:07;;;;;;;11.07;5.50;;;;;;;10.75;79.87;98175.94;3077044;28;20142;-68
2021/12/07 08:12:39;;;;;;;15.25;7.15;;;;;;;10.80;79.56;98179.06;3077144;28;20107;-68
2021/12/07 08:14:10;;;;;;;13.85;6.65;;;;;;;10.83;79.86;98174.44;3077473;28;20492;-68
2021/12/07 08:15:44;;;;;;;14.82;8.15;;;;;;;10.86;79.93;98176.81;3076448;28;20054;-66
2021/12/07 08:17:16;;;;;;;;;;;;;;;10.67;80.17;98169.50;3077925;28;20133;-66
2021/12/07 08:18:50;;;;;;;15.23;7.75;;;;;;;10.79;80.18;98174.75;3076440;28;19936;-68
2021/12/07 08:20:23;;;;;;;22.17;12.35;;;;;;;10.90;79.75;98180.88;3077631;28;20055;-68
2021/12/07 08:21:56;;;;;;;13.18;5.90;;;;;;;10.95;79.91;98183.16;3077686;28;20086;-66
2021/12/07 08:23:28;;;;;;;10.98;5.68;;;;;;;10.99;79.76;98186.34;3076980;28;20422;-67